createdAt,value
2019-02-20T00:01:19.381Z,4.33
2019-02-20T00:03:52.472Z,4.29
2019-02-20T00:06:25.965Z,4.19
2019-02-20T00:09:00.469Z,4.09
2019-02-20T00:11:34.039Z,4.09
2019-02-20T00:14:07.295Z,4.08
2019-02-20T00:16:41.232Z,4.06
2019-02-20T00:19:14.732Z,4.14
2019-02-20T00:21:47.888Z,4.21
2019-02-20T00:24:21.204Z,4.13
2019-02-20T00:26:54.674Z,4.14
2019-02-20T00:29:28.199Z,4.12
2019-02-20T00:32:01.267Z,4.15
2019-02-20T00:34:34.366Z,4.18
2019-02-20T00:37:08.143Z,4.29
2019-02-20T00:39:41.492Z,4.29
2019-02-20T00:42:15.295Z,4.32
2019-02-20T00:45:07.815Z,4.40
2019-02-20T00:48:03.833Z,4.43
2019-02-20T00:50:37.757Z,4.48
2019-02-20T00:53:36.568Z,4.51
2019-02-20T00:56:09.756Z,4.54
2019-02-20T00:58:43.546Z,4.63
2019-02-20T01:01:17.442Z,4.59
2019-02-20T01:03:50.535Z,4.66
2019-02-20T01:06:23.942Z,4.70
2019-02-20T01:08:57.145Z,4.71
2019-02-20T01:11:30.627Z,4.66
2019-02-20T01:14:03.204Z,4.64
2019-02-20T01:16:37.053Z,4.65
2019-02-20T01:19:10.040Z,4.69
2019-02-20T01:21:42.687Z,4.68
2019-02-20T01:24:15.673Z,4.72
2019-02-20T01:26:49.079Z,4.70
2019-02-20T01:29:22.692Z,4.64
2019-02-20T01:31:55.659Z,4.69
2019-02-20T01:34:27.920Z,4.69
2019-02-20T01:37:01.325Z,4.68
2019-02-20T01:39:34.504Z,4.72
2019-02-20T19:32:30.919Z,7.80
2019-02-20T19:35:51.643Z,7.71
2019-02-20T19:39:02.636Z,7.66
2019-02-20T19:42:20.464Z,7.57
2019-02-20T19:45:37.170Z,7.56
2019-02-20T19:48:33.999Z,7.55
2019-02-20T19:51:34.689Z,7.57
2019-02-20T19:54:50.487Z,7.59
2019-02-20T19:58:13.308Z,7.50
2019-02-20T20:01:04.429Z,7.45
2019-02-20T20:04:18.965Z,7.41
2019-02-20T20:07:58.025Z,7.40
2019-02-20T20:10:58.664Z,7.39
2019-02-20T20:14:16.117Z,7.34
2019-02-20T20:17:23.284Z,7.30
2019-02-20T20:20:12.170Z,7.26
2019-02-20T20:23:10.225Z,7.22
2019-02-20T20:26:04.882Z,7.15
2019-02-20T20:29:28.071Z,7.22
2019-02-20T20:32:17.579Z,7.22
2019-02-20T20:35:23.339Z,7.11
2019-02-20T20:38:27.597Z,7.08
2019-02-20T20:41:27.672Z,7.11
2019-02-20T20:44:37.681Z,7.09
2019-02-20T20:48:11.222Z,7.08
2019-02-20T20:51:23.043Z,7.05
2019-02-20T20:54:33.775Z,7.07
2019-02-20T20:57:28.971Z,7.06
2019-02-20T21:00:31.146Z,7.01
2019-02-20T21:03:07.288Z,7.03
2019-02-20T21:06:03.469Z,7.01
2019-02-20T21:09:33.763Z,7.00
2019-02-20T21:12:53.795Z,7.02
2019-02-20T21:16:23.589Z,6.97
2019-02-20T21:19:42.040Z,7.00
2019-02-20T21:22:51.386Z,6.92
2019-02-20T21:26:01.160Z,6.85
2019-02-20T21:29:28.371Z,6.86
2019-02-20T21:32:26.758Z,6.92
2019-02-20T21:35:17.301Z,6.89
2019-02-20T21:38:38.311Z,6.82
2019-02-20T21:41:19.288Z,6.80
2019-02-20T21:44:26.045Z,6.78
2019-02-20T21:47:10.219Z,6.70
2019-02-20T21:50:20.900Z,6.70
2019-02-20T21:53:18.898Z,6.63
2019-02-20T21:56:25.692Z,6.69
2019-02-20T21:59:39.066Z,6.62
2019-02-20T22:02:49.015Z,6.51
2019-02-20T22:06:15.319Z,6.45
2019-02-20T22:09:19.255Z,6.44
2019-02-20T22:12:36.769Z,6.55
2019-02-20T22:15:28.674Z,6.45
2019-02-20T22:18:42.003Z,6.35
2019-02-20T22:22:06.129Z,6.47
2019-02-20T22:25:25.610Z,6.42
2019-02-20T22:28:34.593Z,6.40
2019-02-20T22:31:55.351Z,6.43
2019-02-20T22:35:05.573Z,6.47
2019-02-20T22:38:21.394Z,6.51
2019-02-20T22:41:42.506Z,6.46
2019-02-20T22:45:08.321Z,6.27
2019-02-20T22:48:31.434Z,6.41
2019-02-20T22:51:53.929Z,6.40
2019-02-20T22:55:13.537Z,6.30
2019-02-20T22:58:03.222Z,6.23
2019-02-20T23:01:07.106Z,6.17
2019-02-20T23:04:30.789Z,6.07
2019-02-20T23:08:03.613Z,5.96
2019-02-20T23:11:27.562Z,6.08
2019-02-20T23:14:23.483Z,6.08
2019-02-20T23:16:56.055Z,6.08
2019-02-20T23:19:29.587Z,6.07
2019-02-20T23:22:03.370Z,6.06
2019-02-20T23:24:36.776Z,5.98
2019-02-20T23:27:10.917Z,6.10
2019-02-20T23:29:44.855Z,6.11
2019-02-20T23:32:18.319Z,6.06
2019-02-20T23:34:50.995Z,6.08
2019-02-20T23:37:24.544Z,6.33
2019-02-20T23:39:57.568Z,6.36
2019-02-20T23:42:30.729Z,6.29
2019-02-20T23:45:04.356Z,6.51
2019-02-20T23:47:37.763Z,6.82
2019-02-20T23:50:11.362Z,6.80
2019-02-20T23:52:44.988Z,6.76
2019-02-20T23:55:18.863Z,6.90
2019-02-20T23:57:51.580Z,6.90
